Time;durP1;ratioP1;P1;durP2;ratioP2;P2;SDS_P1;SDS_P2;PMS_P1;PMS_P2;Temp;Humidity;BMP_temperature;BMP_pressure;BME280_temperature;BME280_humidity;BME280_pressure;Samples;Min_cycle;Max_cycle;Signal;HPM_P1;HPM_P2
2021/05/06 00:29:41;;;;;;;17.48;9.98;;;2.50;99.90;;;;;;5063208;28;20607;-73
2021/05/06 00:31:40;;;;;;;18.77;10.45;;;2.30;99.90;;;;;;5046506;28;20044;-74
2021/05/06 00:34:03;;;;;;;21.15;10.75;;;2.30;99.90;;;;;;5047405;28;20131;-74
2021/05/06 00:36:29;;;;;;;24.25;12.15;;;2.30;99.90;;;;;;5043745;28;20127;-75
2021/05/06 00:39:00;;;;;;;21.20;11.38;;;2.40;99.90;;;;;;5065603;28;20060;-75
2021/05/06 00:54:01;;;;;;;19.88;11.90;;;2.60;99.90;;;;;;5046581;28;20079;-74
2021/05/06 01:00:30;;;;;;;16.80;11.30;;;2.90;99.90;;;;;;5047699;28;20071;-73
2021/05/06 01:05:32;;;;;;;18.98;11.60;;;2.90;99.90;;;;;;5045880;28;20139;-75
2021/05/06 01:08:07;;;;;;;18.33;12.00;;;2.90;99.90;;;;;;5047159;28;20064;-73
2021/05/06 01:13:24;;;;;;;18.67;11.35;;;2.90;99.90;;;;;;5046947;28;20056;-73
2021/05/06 01:15:51;;;;;;;19.45;11.82;;;2.90;99.90;;;;;;5046243;28;20076;-73
2021/05/06 01:18:18;;;;;;;19.13;12.45;;;2.90;99.90;;;;;;5030565;28;20068;-73
2021/05/06 01:20:49;;;;;;;20.13;10.95;;;2.90;99.90;;;;;;5027770;28;20052;-73
2021/05/06 01:23:17;;;;;;;15.88;10.55;;;3.00;99.90;;;;;;5047024;28;20075;-73
2021/05/06 01:25:51;;;;;;;14.40;9.43;;;3.10;99.90;;;;;;5013236;28;20418;-73
2021/05/06 01:28:21;;;;;;;17.65;9.57;;;3.20;99.90;;;;;;5046738;28;20329;-73
2021/05/06 01:31:00;;;;;;;12.80;9.80;;;3.40;99.90;;;;;;5045702;28;20607;-73
2021/05/06 01:33:35;;;;;;;17.27;9.52;;;3.50;99.90;;;;;;5046730;28;20171;-73
2021/05/06 01:36:06;;;;;;;19.33;10.10;;;3.70;99.90;;;;;;5028127;28;20501;-73
2021/05/06 02:00:15;;;;;;;16.30;10.27;;;3.80;99.90;;;;;;5029618;28;20052;-73
2021/05/06 02:02:42;;;;;;;18.35;11.27;;;3.90;99.90;;;;;;5028950;28;20067;-73
2021/05/06 02:05:11;;;;;;;15.10;10.27;;;3.90;99.90;;;;;;5028458;28;20040;-73
2021/05/06 02:07:40;;;;;;;17.92;10.50;;;3.90;99.90;;;;;;5028335;28;20055;-74
2021/05/06 02:10:09;;;;;;;20.23;12.57;;;3.90;99.90;;;;;;5038269;28;20049;-74
2021/05/06 02:12:35;;;;;;;16.45;11.30;;;4.00;99.90;;;;;;5024754;28;20456;-73
2021/05/06 02:15:42;;;;;;;17.00;11.15;;;4.00;99.90;;;;;;5009044;28;20472;-73
2021/05/06 02:18:00;;;;;;;17.35;12.27;;;4.00;99.90;;;;;;5009416;28;20110;-73
2021/05/06 02:20:28;;;;;;;21.98;11.88;;;4.00;99.90;;;;;;5040591;28;20052;-73
2021/05/06 02:22:55;;;;;;;15.65;12.32;;;4.00;99.90;;;;;;5055730;28;20136;-73
2021/05/06 02:25:21;;;;;;;16.73;11.90;;;4.10;99.90;;;;;;5045207;28;20060;-73
2021/05/06 02:27:50;;;;;;;15.57;12.20;;;4.00;99.90;;;;;;5013511;28;20492;-73
2021/05/06 02:30:17;;;;;;;19.90;12.38;;;3.90;99.90;;;;;;5044293;28;20064;-73
2021/05/06 02:32:45;;;;;;;20.42;13.15;;;3.90;99.90;;;;;;5012863;28;20057;-74
2021/05/06 02:35:12;;;;;;;19.67;13.40;;;3.80;99.90;;;;;;5045027;28;20044;-74
2021/05/06 02:37:38;;;;;;;18.88;12.52;;;3.80;99.90;;;;;;5047188;28;20044;-73
2021/05/06 02:40:06;;;;;;;24.00;13.48;;;3.80;99.90;;;;;;5056829;28;20075;-72
2021/05/06 02:42:32;;;;;;;28.90;13.35;;;3.70;99.90;;;;;;5045644;28;20294;-72
2021/05/06 02:44:58;;;;;;;18.67;12.30;;;3.70;99.90;;;;;;5028583;28;20111;-72
2021/05/06 02:47:26;;;;;;;17.42;11.80;;;3.70;99.90;;;;;;5039769;28;20048;-73
2021/05/06 02:49:53;;;;;;;17.00;12.23;;;3.70;99.90;;;;;;5076047;28;20088;-73
2021/05/06 02:52:29;;;;;;;21.65;12.68;;;3.70;99.90;;;;;;5047177;28;20036;-73
2021/05/06 02:55:07;;;;;;;19.27;12.25;;;3.60;99.90;;;;;;5047067;28;20118;-74
2021/05/06 03:02:56;;;;;;;16.98;12.15;;;3.60;99.90;;;;;;5030001;28;20044;-73
2021/05/06 03:05:27;;;;;;;18.95;12.93;;;3.60;99.90;;;;;;5048598;28;20045;-73
2021/05/06 03:08:08;;;;;;;22.00;14.23;;;3.60;99.90;;;;;;5029696;28;20106;-74
2021/05/06 03:23:58;;;;;;;21.42;15.07;;;3.50;99.90;;;;;;5059422;28;20108;-73
2021/05/06 03:26:24;;;;;;;27.60;16.75;;;3.40;99.90;;;;;;5061477;28;20048;-73
2021/05/06 03:29:03;;;;;;;25.55;16.52;;;3.40;99.90;;;;;;5050363;28;20110;-73
2021/05/06 03:41:38;;;;;;;29.85;19.58;;;3.40;99.90;;;;;;5040610;28;20463;-74
2021/05/06 03:43:50;;;;;;;27.33;17.42;;;3.40;99.90;;;;;;5037057;28;20079;-73
2021/05/06 04:30:11;;;;;;;15.13;12.65;;;4.30;99.90;;;;;;5064064;28;20738;-73
2021/05/06 04:35:38;;;;;;;11.95;10.63;;;4.40;99.90;;;;;;5028842;28;20179;-73
2021/05/06 04:38:06;;;;;;;11.43;8.63;;;4.40;99.90;;;;;;5047698;28;20124;-73
2021/05/06 04:46:24;;;;;;;14.48;10.73;;;4.40;99.90;;;;;;5045683;28;20128;-73
2021/05/06 04:54:27;;;;;;;18.42;13.07;;;4.10;99.90;;;;;;5065037;28;20118;-74
2021/05/06 05:04:43;;;;;;;21.55;13.27;;;3.90;99.90;;;;;;5044293;28;20246;-74
2021/05/06 05:07:17;;;;;;;23.45;13.63;;;4.00;99.90;;;;;;5028846;28;20496;-73
2021/05/06 05:09:58;;;;;;;18.30;12.55;;;4.00;99.90;;;;;;5028215;28;20515;-72
2021/05/06 05:12:52;;;;;;;24.15;14.60;;;4.00;99.90;;;;;;5013091;28;20036;-72
2021/05/06 05:20:53;;;;;;;24.75;15.55;;;4.10;99.90;;;;;;5028860;28;20056;-73
2021/05/06 05:25:48;;;;;;;20.63;13.63;;;4.10;99.90;;;;;;5045623;28;20114;-72
2021/05/06 05:28:15;;;;;;;20.35;13.35;;;4.10;99.90;;;;;;5046522;28;20487;-73
2021/05/06 05:30:41;;;;;;;23.35;14.35;;;4.10;99.90;;;;;;5043941;28;20066;-73
2021/05/06 05:33:12;;;;;;;20.05;13.32;;;4.20;99.90;;;;;;5044938;28;20117;-72
2021/05/06 05:35:41;;;;;;;20.23;14.30;;;4.20;99.90;;;;;;5026619;28;20131;-72
2021/05/06 05:56:43;;;;;;;25.77;16.83;;;4.30;99.90;;;;;;5023483;28;20296;-73
2021/05/06 05:59:10;;;;;;;28.40;17.80;;;4.30;99.90;;;;;;5029530;28;20056;-73
2021/05/06 06:01:36;;;;;;;26.60;16.65;;;4.40;99.90;;;;;;5045286;28;20056;-74
2021/05/06 06:04:03;;;;;;;33.13;20.95;;;4.40;99.90;;;;;;5030123;28;20493;-74
2021/05/06 06:06:29;;;;;;;29.42;18.58;;;4.40;99.90;;;;;;5062945;28;20135;-73
2021/05/06 06:08:56;;;;;;;29.50;17.95;;;4.50;99.90;;;;;;5017203;28;20049;-73
2021/05/06 06:11:22;;;;;;;33.33;19.60;;;4.50;99.90;;;;;;5021302;28;20262;-73
2021/05/06 06:13:51;;;;;;;26.60;16.98;;;4.40;99.90;;;;;;5020257;28;20144;-73
2021/05/06 06:16:24;;;;;;;24.83;16.38;;;4.50;99.90;;;;;;5045873;28;20532;-73
2021/05/06 06:18:59;;;;;;;27.27;16.92;;;4.40;99.90;;;;;;5013127;28;20048;-73
2021/05/06 06:21:42;;;;;;;27.33;16.88;;;4.50;99.90;;;;;;5041345;28;20516;-74
2021/05/06 06:24:09;;;;;;;20.10;13.02;;;4.60;99.90;;;;;;5045067;28;20056;-74
2021/05/06 06:26:36;;;;;;;22.88;16.15;;;4.50;99.90;;;;;;5045219;28;20044;-74
2021/05/06 06:29:12;;;;;;;21.70;15.20;;;4.50;99.90;;;;;;5030228;28;20041;-73
2021/05/06 06:34:08;;;;;;;24.58;17.05;;;4.50;99.90;;;;;;5044845;28;20584;-72
2021/05/06 06:36:35;;;;;;;22.20;16.67;;;4.50;99.90;;;;;;5044435;28;20052;-73
2021/05/06 06:39:03;;;;;;;30.42;18.70;;;4.60;99.90;;;;;;5046344;28;20523;-73
2021/05/06 06:41:30;;;;;;;26.02;16.58;;;4.50;99.90;;;;;;5029103;28;20049;-72
2021/05/06 06:43:59;;;;;;;28.33;18.38;;;4.60;99.90;;;;;;5031539;28;20357;-72
2021/05/06 06:46:25;;;;;;;24.77;15.38;;;4.50;99.90;;;;;;5044937;28;20135;-73
2021/05/06 06:48:52;;;;;;;26.35;18.15;;;4.50;99.90;;;;;;5062387;28;20052;-74
2021/05/06 06:51:18;;;;;;;29.88;18.77;;;4.50;99.90;;;;;;5044825;28;20068;-72
2021/05/06 06:53:45;;;;;;;26.77;20.20;;;4.50;99.90;;;;;;5028737;28;20148;-76
2021/05/06 06:56:11;;;;;;;33.10;21.50;;;4.50;99.90;;;;;;5028164;28;20083;-75
2021/05/06 06:58:39;;;;;;;35.13;21.75;;;4.60;99.90;;;;;;5030050;28;20501;-75
2021/05/06 07:01:09;;;;;;;29.67;20.52;;;4.70;99.90;;;;;;5028233;28;20079;-75
2021/05/06 07:03:35;;;;;;;31.92;22.15;;;4.60;99.90;;;;;;5043750;28;20098;-74
2021/05/06 07:06:02;;;;;;;31.67;22.52;;;4.60;99.90;;;;;;5046251;28;20044;-74
2021/05/06 07:08:34;;;;;;;32.35;21.35;;;4.60;99.90;;;;;;5030742;28;20052;-75
2021/05/06 07:11:03;;;;;;;31.77;23.10;;;4.60;99.90;;;;;;5045726;28;20052;-75
2021/05/06 07:13:30;;;;;;;37.55;24.52;;;4.50;99.90;;;;;;5046135;28;20052;-75
2021/05/06 07:16:03;;;;;;;34.30;22.38;;;4.40;99.90;;;;;;5043680;28;20109;-74
2021/05/06 07:18:31;;;;;;;41.08;25.33;;;4.50;99.90;;;;;;5012764;28;20131;-75
2021/05/06 07:21:00;;;;;;;43.80;25.80;;;4.50;99.90;;;;;;5021101;28;20048;-74
2021/05/06 07:23:27;;;;;;;32.53;22.20;;;4.50;99.90;;;;;;5030249;28;20041;-73
2021/05/06 07:25:58;;;;;;;45.22;27.92;;;4.50;99.90;;;;;;5055764;28;20395;-74
2021/05/06 07:28:38;;;;;;;45.30;27.52;;;4.50;99.90;;;;;;5042191;28;20523;-74
2021/05/06 07:31:10;;;;;;;50.17;29.13;;;4.60;99.90;;;;;;5043336;28;20036;-75
2021/05/06 07:33:41;;;;;;;50.45;28.88;;;4.60;99.90;;;;;;5024108;28;20053;-74
2021/05/06 07:36:12;;;;;;;58.00;32.25;;;4.60;99.90;;;;;;5016679;28;20045;-74
2021/05/06 07:38:42;;;;;;;56.60;33.20;;;4.60;99.90;;;;;;5012064;28;20057;-75
2021/05/06 07:41:13;;;;;;;53.53;32.58;;;4.60;99.90;;;;;;5005718;28;20041;-74
2021/05/06 07:43:43;;;;;;;51.88;31.15;;;4.50;99.90;;;;;;5039930;28;20045;-74
2021/05/06 07:46:14;;;;;;;45.90;27.70;;;4.30;99.90;;;;;;5041510;28;20143;-74
2021/05/06 07:48:46;;;;;;;43.90;25.30;;;4.00;99.90;;;;;;5032757;28;20056;-74
2021/05/06 07:51:16;;;;;;;46.90;24.85;;;3.70;99.90;;;;;;5032689;28;20218;-73
2021/05/06 07:53:49;;;;;;;43.35;24.90;;;3.60;99.90;;;;;;5021097;28;20084;-74
2021/05/06 07:56:20;;;;;;;45.63;26.80;;;3.50;99.90;;;;;;5043419;28;20338;-73
2021/05/06 07:58:47;;;;;;;46.50;27.40;;;3.50;99.90;;;;;;5050313;28;20617;-74
2021/05/06 08:01:14;;;;;;;50.95;28.50;;;3.50;99.90;;;;;;5048890;28;20486;-73
2021/05/06 08:03:41;;;;;;;48.50;27.38;;;3.50;99.90;;;;;;5067000;28;20150;-73
2021/05/06 08:06:08;;;;;;;50.00;27.75;;;3.50;99.90;;;;;;5048143;28;20413;-74
2021/05/06 08:08:35;;;;;;;48.80;28.50;;;3.50;99.90;;;;;;5048993;28;20049;-74
2021/05/06 08:11:02;;;;;;;54.08;29.58;;;3.60;99.90;;;;;;5030631;28;20156;-74
2021/05/06 08:13:29;;;;;;;57.15;32.47;;;3.70;99.90;;;;;;5032224;28;20056;-73
2021/05/06 08:15:57;;;;;;;51.72;29.88;;;3.80;99.90;;;;;;5029944;28;20048;-73
2021/05/06 08:18:24;;;;;;;55.42;31.40;;;3.80;99.90;;;;;;5031141;28;20595;-73
2021/05/06 08:20:51;;;;;;;51.55;29.15;;;3.90;99.90;;;;;;5048093;28;20208;-74
2021/05/06 08:23:20;;;;;;;58.78;33.08;;;3.90;99.90;;;;;;5048547;28;20068;-74
2021/05/06 08:25:47;;;;;;;60.38;33.55;;;3.90;99.90;;;;;;5063782;28;20049;-74
2021/05/06 08:28:14;;;;;;;62.35;34.00;;;3.90;99.90;;;;;;5031242;28;20502;-73
2021/05/06 08:30:43;;;;;;;58.95;32.00;;;3.90;99.90;;;;;;5039878;28;20358;-75
2021/05/06 08:33:11;;;;;;;54.20;30.92;;;4.00;99.90;;;;;;5052520;28;20052;-75
2021/05/06 08:35:37;;;;;;;56.65;31.60;;;3.90;99.90;;;;;;5047182;28;20075;-75
2021/05/06 08:38:04;;;;;;;51.97;29.00;;;4.00;99.90;;;;;;5048246;28;20048;-73
2021/05/06 08:40:31;;;;;;;67.55;32.53;;;4.00;99.90;;;;;;5065585;28;20322;-74
2021/05/06 08:43:09;;;;;;;64.05;31.83;;;4.00;99.90;;;;;;5055801;28;20114;-72
2021/05/06 08:45:43;;;;;;;56.85;31.55;;;4.10;99.90;;;;;;5044579;28;20055;-76
2021/05/06 08:48:14;;;;;;;58.67;32.28;;;4.10;99.90;;;;;;5048969;28;20052;-73
2021/05/06 08:50:42;;;;;;;62.13;31.75;;;3.90;99.90;;;;;;5046125;28;20056;-74
2021/05/06 08:53:10;;;;;;;62.28;32.78;;;3.60;99.90;;;;;;5046813;28;20412;-73
2021/05/06 08:55:36;;;;;;;79.05;40.70;;;3.30;99.90;;;;;;5046703;28;20252;-73
2021/05/06 08:58:02;;;;;;;69.45;36.42;;;3.10;99.90;;;;;;5048101;28;20072;-73
2021/05/06 09:00:31;;;;;;;75.57;39.38;;;3.00;99.90;;;;;;5046945;28;20122;-72
2021/05/06 09:02:57;;;;;;;74.18;36.42;;;2.90;99.90;;;;;;5047394;28;20106;-72
2021/05/06 09:05:24;;;;;;;79.65;40.28;;;3.10;99.90;;;;;;5062910;28;20068;-71
2021/05/06 09:07:51;;;;;;;86.65;44.00;;;3.10;99.90;;;;;;5047500;28;20071;-74
2021/05/06 09:10:34;;;;;;;82.78;41.95;;;3.20;99.90;;;;;;5046472;28;20063;-74
2021/05/06 09:13:02;;;;;;;74.57;36.53;;;3.40;99.90;;;;;;5031285;28;20049;-75
2021/05/06 09:15:28;;;;;;;79.53;38.95;;;3.50;99.90;;;;;;5064424;28;20102;-75
2021/05/06 09:17:55;;;;;;;72.43;37.25;;;3.50;99.90;;;;;;5029333;28;20051;-75
2021/05/06 09:20:24;;;;;;;67.18;35.78;;;3.60;99.90;;;;;;5025419;28;20061;-75
2021/05/06 09:22:56;;;;;;;73.72;37.20;;;3.80;99.90;;;;;;5044449;28;20175;-76
2021/05/06 09:25:36;;;;;;;73.80;39.38;;;4.10;99.90;;;;;;5028322;28;20581;-75
2021/05/06 09:28:12;;;;;;;83.35;41.67;;;4.20;99.90;;;;;;5062633;28;20260;-76
2021/05/06 09:30:48;;;;;;;59.70;33.40;;;4.40;99.90;;;;;;5042453;28;20540;-75
2021/05/06 09:33:15;;;;;;;53.97;31.05;;;4.70;99.90;;;;;;5044123;28;20127;-76
2021/05/06 09:35:47;;;;;;;138.35;42.13;;;5.10;99.90;;;;;;5045309;28;20051;-76
2021/05/06 09:38:31;;;;;;;331.77;61.00;;;5.70;99.90;;;;;;5014588;28;20040;-77
2021/05/06 09:41:01;;;;;;;243.90;51.25;;;6.30;99.90;;;;;;5010525;28;20193;-75
2021/05/06 09:43:40;;;;;;;91.60;34.35;;;6.60;99.90;;;;;;5042204;28;20072;-75
2021/05/06 09:46:41;;;;;;;53.28;31.55;;;6.90;99.90;;;;;;5044801;28;20044;-75
2021/05/06 09:49:09;;;;;;;42.58;28.75;;;7.00;99.90;;;;;;5031138;28;20053;-75
2021/05/06 09:51:41;;;;;;;43.45;28.55;;;7.00;99.90;;;;;;5065377;28;20055;-75
2021/05/06 09:54:29;;;;;;;44.50;27.63;;;6.80;99.90;;;;;;5030980;28;20094;-74
2021/05/06 09:57:07;;;;;;;40.15;26.70;;;6.40;99.90;;;;;;5066025;28;20106;-75
2021/05/06 09:59:38;;;;;;;38.83;25.55;;;6.30;99.90;;;;;;5023040;28;20053;-74
2021/05/06 10:02:17;;;;;;;45.17;29.50;;;6.00;99.90;;;;;;5050489;28;20041;-76
2021/05/06 10:04:45;;;;;;;39.67;25.77;;;5.80;99.90;;;;;;5031127;28;20423;-76
2021/05/06 10:07:22;;;;;;;45.60;26.35;;;5.70;99.90;;;;;;5030565;28;20055;-76
2021/05/06 10:10:01;;;;;;;40.13;25.45;;;5.60;99.90;;;;;;5031064;28;20048;-75
2021/05/06 10:12:30;;;;;;;42.92;25.98;;;5.50;99.90;;;;;;5048052;28;20056;-75
2021/05/06 10:14:58;;;;;;;41.50;25.60;;;5.50;99.90;;;;;;5028095;28;20090;-75
2021/05/06 10:17:26;;;;;;;37.75;25.13;;;5.50;99.90;;;;;;5031097;28;20538;-75
2021/05/06 10:19:55;;;;;;;43.78;27.75;;;5.60;99.90;;;;;;5030488;28;20417;-75
2021/05/06 10:22:24;;;;;;;42.47;25.15;;;5.80;99.90;;;;;;5052406;28;20777;-76
2021/05/06 10:24:55;;;;;;;37.20;23.55;;;5.80;99.90;;;;;;5031276;28;20135;-76
2021/05/06 10:27:26;;;;;;;39.38;24.80;;;6.00;99.90;;;;;;5066086;28;20124;-74
2021/05/06 10:29:57;;;;;;;32.58;23.15;;;6.30;99.90;;;;;;5032043;28;20258;-73
2021/05/06 10:32:26;;;;;;;28.85;21.05;;;6.40;99.90;;;;;;5076164;28;20041;-74
2021/05/06 10:35:06;;;;;;;41.25;26.45;;;6.60;99.90;;;;;;5032767;28;20063;-75
2021/05/06 10:37:38;;;;;;;36.67;25.40;;;6.70;99.90;;;;;;5065947;28;20055;-75
2021/05/06 10:40:31;;;;;;;31.45;23.52;;;7.10;99.90;;;;;;5031686;28;20059;-75
2021/05/06 10:43:30;;;;;;;38.70;26.85;;;7.20;99.90;;;;;;5015327;28;20044;-75
2021/05/06 10:46:04;;;;;;;30.77;22.85;;;7.60;99.90;;;;;;5046509;28;20413;-75
2021/05/06 10:49:01;;;;;;;34.17;25.63;;;7.70;99.90;;;;;;5015299;28;20049;-75
2021/05/06 10:51:34;;;;;;;35.70;26.35;;;8.10;99.90;;;;;;5031894;28;20366;-75
2021/05/06 10:54:25;;;;;;;26.35;21.75;;;8.30;99.90;;;;;;5031191;28;20169;-74
2021/05/06 10:56:52;;;;;;;35.28;28.08;;;8.30;99.90;;;;;;5046263;28;20415;-74
2021/05/06 10:59:23;;;;;;;34.17;27.98;;;8.50;99.90;;;;;;5030016;28;20140;-75
2021/05/06 11:01:50;;;;;;;28.75;24.60;;;8.70;99.90;;;;;;5043128;28;20231;-75
2021/05/06 11:04:30;;;;;;;30.50;25.60;;;9.00;99.90;;;;;;5013818;28;20040;-75
2021/05/06 11:07:17;;;;;;;32.30;25.58;;;9.00;99.90;;;;;;5047611;28;20128;-75
2021/05/06 11:09:46;;;;;;;30.73;23.65;;;8.90;99.90;;;;;;5048861;28;20059;-75
2021/05/06 11:12:16;;;;;;;30.52;24.17;;;8.80;99.90;;;;;;5045875;28;20048;-75
2021/05/06 11:15:01;;;;;;;23.98;20.60;;;8.80;99.90;;;;;;5029717;28;20463;-75
2021/05/06 11:17:39;;;;;;;26.10;22.90;;;8.90;99.90;;;;;;5027253;28;20093;-74
2021/05/06 11:20:12;;;;;;;26.80;20.83;;;8.70;99.90;;;;;;5013326;28;20136;-73
2021/05/06 11:22:41;;;;;;;27.92;22.88;;;8.70;99.90;;;;;;5043814;28;20059;-74
2021/05/06 11:25:47;;;;;;;26.33;20.17;;;8.50;99.90;;;;;;5037371;28;20355;-75
2021/05/06 11:28:15;;;;;;;29.48;22.77;;;8.20;99.90;;;;;;5021850;28;20515;-75
2021/05/06 11:30:55;;;;;;;28.90;23.88;;;8.20;99.90;;;;;;5044142;28;20050;-74
2021/05/06 11:33:22;;;;;;;26.75;23.30;;;8.20;99.90;;;;;;5046545;28;20128;-74
2021/05/06 11:35:59;;;;;;;29.13;23.35;;;8.20;99.90;;;;;;5043602;28;20162;-73
2021/05/06 11:38:34;;;;;;;28.23;20.88;;;8.30;99.90;;;;;;5030878;28;20052;-74
2021/05/06 11:41:07;;;;;;;26.00;20.73;;;8.40;99.90;;;;;;5030956;28;20048;-73
2021/05/06 11:43:55;;;;;;;22.52;17.17;;;8.20;99.90;;;;;;5031637;28;20487;-74
2021/05/06 11:46:30;;;;;;;23.05;17.65;;;7.90;99.90;;;;;;5013793;28;20153;-74
2021/05/06 11:48:58;;;;;;;;;;;7.30;99.90;;;;;;5059527;28;20515;-73
2021/05/06 11:51:29;;;;;;;22.80;16.55;;;7.10;99.90;;;;;;5048241;28;20311;-74
2021/05/06 11:54:19;;;;;;;21.38;16.88;;;7.40;99.90;;;;;;5048591;28;20059;-74
2021/05/06 11:56:57;;;;;;;19.58;16.98;;;8.00;99.90;;;;;;5047073;28;20139;-74
2021/05/06 11:59:27;;;;;;;20.13;18.13;;;8.20;99.90;;;;;;5047799;28;20056;-72
2021/05/06 12:01:57;;;;;;;20.30;18.30;;;8.30;99.90;;;;;;5063435;28;20048;-73
2021/05/06 12:04:31;;;;;;;20.88;18.77;;;8.50;99.90;;;;;;5029902;28;20223;-75
2021/05/06 12:06:59;;;;;;;;;;;9.00;99.90;;;;;;5035700;28;20044;-74
2021/05/06 12:09:29;;;;;;;21.90;18.80;;;9.30;99.90;;;;;;5052526;28;19947;-75
2021/05/06 12:11:56;;;;;;;22.23;20.02;;;9.50;99.90;;;;;;5034170;28;20535;-75
2021/05/06 12:14:30;;;;;;;23.08;20.77;;;9.70;99.90;;;;;;5050797;28;20045;-75
2021/05/06 12:16:57;;;;;;;22.17;20.08;;;9.70;99.90;;;;;;5044062;28;20059;-74
2021/05/06 12:19:24;;;;;;;22.45;20.15;;;9.70;99.90;;;;;;5016498;28;20055;-75
2021/05/06 12:21:54;;;;;;;23.10;20.77;;;9.50;99.90;;;;;;5012390;28;20084;-76
2021/05/06 12:24:32;;;;;;;24.13;21.52;;;9.50;99.90;;;;;;5049286;28;20215;-74
2021/05/06 12:27:24;;;;;;;22.52;20.33;;;9.60;99.90;;;;;;5036120;28;20044;-74
2021/05/06 12:30:11;;;;;;;23.13;20.73;;;9.60;99.90;;;;;;5043870;28;20044;-74
2021/05/06 12:32:46;;;;;;;23.38;20.88;;;9.70;99.90;;;;;;5074370;28;20201;-75
2021/05/06 12:35:14;;;;;;;24.10;21.60;;;10.00;99.90;;;;;;5050625;28;20397;-75
2021/05/06 12:37:43;;;;;;;24.08;21.60;;;10.30;99.90;;;;;;5046620;28;20143;-75
2021/05/06 12:40:11;;;;;;;21.52;19.42;;;10.40;99.90;;;;;;5049908;28;20104;-75
2021/05/06 12:42:38;;;;;;;22.83;20.55;;;10.70;99.90;;;;;;5062328;28;20055;-75
2021/05/06 12:45:31;;;;;;;21.92;20.02;;;10.90;99.90;;;;;;5047384;28;20564;-75
2021/05/06 12:47:57;;;;;;;22.15;20.05;;;10.90;99.90;;;;;;5065000;28;20055;-76
2021/05/06 12:50:28;;;;;;;22.45;20.35;;;11.10;99.90;;;;;;5048350;28;20064;-75
2021/05/06 12:53:04;;;;;;;23.13;21.05;;;11.40;99.90;;;;;;5057667;28;20178;-75
2021/05/06 12:55:36;;;;;;;22.70;20.58;;;11.70;99.90;;;;;;5068074;28;20048;-74
2021/05/06 12:58:05;;;;;;;24.45;22.25;;;11.70;99.90;;;;;;5050749;28;20123;-75
2021/05/06 13:00:34;;;;;;;23.05;20.98;;;11.70;99.90;;;;;;5050003;28;20052;-75
2021/05/06 13:03:09;;;;;;;23.88;21.70;;;11.20;99.90;;;;;;5049864;28;20165;-75
2021/05/06 13:05:38;;;;;;;24.40;22.10;;;10.60;99.90;;;;;;5048734;28;20052;-76
2021/05/06 13:08:05;;;;;;;24.48;22.38;;;11.00;99.90;;;;;;5033706;28;20581;-74
2021/05/06 13:10:35;;;;;;;22.65;20.55;;;10.90;99.90;;;;;;5015135;28;20056;-75
2021/05/06 13:13:04;;;;;;;22.63;20.63;;;11.20;99.90;;;;;;5048738;28;20060;-75
2021/05/06 13:15:48;;;;;;;21.92;20.02;;;11.60;99.90;;;;;;5047625;28;20052;-74
2021/05/06 13:18:16;;;;;;;21.77;19.92;;;11.50;99.90;;;;;;5027174;28;20123;-74
2021/05/06 13:20:43;;;;;;;20.98;19.27;;;11.20;99.90;;;;;;5031579;28;20418;-75
2021/05/06 13:23:11;;;;;;;21.80;19.95;;;11.10;99.90;;;;;;5033122;28;20132;-75
2021/05/06 13:25:41;;;;;;;20.90;19.13;;;11.30;99.90;;;;;;5011938;28;20055;-75
2021/05/06 13:28:08;;;;;;;21.80;20.00;;;11.70;99.90;;;;;;5012594;28;20118;-75
2021/05/06 13:30:34;;;;;;;21.58;19.63;;;11.70;99.90;;;;;;5029552;28;20047;-74
2021/05/06 13:33:19;;;;;;;21.95;20.08;;;11.50;99.90;;;;;;5064997;28;20052;-74
2021/05/06 13:36:06;;;;;;;23.13;20.85;;;11.40;99.90;;;;;;5046845;28;20414;-75
2021/05/06 13:39:00;;;;;;;21.48;19.63;;;11.30;99.90;;;;;;5064799;28;20087;-75
2021/05/06 13:41:31;;;;;;;23.13;21.05;;;11.30;99.90;;;;;;5061475;28;20128;-75
2021/05/06 13:43:59;;;;;;;22.27;20.30;;;11.10;99.90;;;;;;5025429;28;20092;-75
2021/05/06 13:46:27;;;;;;;23.75;21.63;;;11.00;99.90;;;;;;5046109;28;20070;-75
2021/05/06 13:48:54;;;;;;;22.17;20.27;;;10.80;99.90;;;;;;5047694;28;20163;-75
2021/05/06 13:51:22;;;;;;;22.50;20.40;;;10.70;99.90;;;;;;5046756;28;20340;-75
2021/05/06 13:53:51;;;;;;;22.80;20.80;;;10.80;99.90;;;;;;5046949;28;20416;-74
2021/05/06 13:56:18;;;;;;;22.00;20.02;;;11.00;99.90;;;;;;5047249;28;20041;-75
2021/05/06 13:58:44;;;;;;;23.17;21.05;;;11.10;99.90;;;;;;5048295;28;20544;-75
2021/05/06 14:01:15;;;;;;;23.05;20.98;;;11.20;99.90;;;;;;5049139;28;20048;-75
2021/05/06 14:03:41;;;;;;;22.58;20.48;;;11.30;99.90;;;;;;5047879;28;20135;-75
2021/05/06 14:06:08;;;;;;;22.10;20.13;;;11.30;99.90;;;;;;5047056;28;20421;-75
2021/05/06 14:08:35;;;;;;;22.60;20.55;;;11.20;99.90;;;;;;5030943;28;20055;-75
2021/05/06 14:11:03;;;;;;;21.40;19.67;;;11.30;99.90;;;;;;5029293;28;20056;-75
2021/05/06 14:13:31;;;;;;;23.20;21.00;;;11.40;99.90;;;;;;5019293;28;20048;-75
2021/05/06 14:15:58;;;;;;;23.00;20.92;;;11.70;99.90;;;;;;5023454;28;20052;-75
2021/05/06 14:18:25;;;;;;;22.52;20.55;;;11.80;99.90;;;;;;5015817;28;20044;-75
2021/05/06 14:20:53;;;;;;;20.63;18.73;;;11.90;99.90;;;;;;5029063;28;20550;-75
2021/05/06 14:23:21;;;;;;;18.67;17.27;;;11.70;99.90;;;;;;5046136;28;20048;-75
2021/05/06 14:25:48;;;;;;;19.50;17.98;;;11.70;99.90;;;;;;5029088;28;20113;-75
2021/05/06 14:28:14;;;;;;;19.33;17.83;;;11.50;99.90;;;;;;5030169;28;20056;-75
2021/05/06 14:30:41;;;;;;;19.20;17.73;;;11.20;99.90;;;;;;5043888;28;20048;-75
2021/05/06 14:33:07;;;;;;;22.02;20.05;;;11.00;99.90;;;;;;5045761;28;20137;-75
2021/05/06 14:35:34;;;;;;;20.90;18.85;;;10.90;99.90;;;;;;5043453;28;20036;-75
2021/05/06 14:38:01;;;;;;;19.80;18.20;;;11.00;99.90;;;;;;5063985;28;20102;-74
2021/05/06 14:40:28;;;;;;;21.15;19.33;;;11.10;99.90;;;;;;5045288;28;20106;-74
2021/05/06 14:42:54;;;;;;;20.38;18.60;;;11.30;99.90;;;;;;5046223;28;20121;-75
2021/05/06 14:45:20;;;;;;;20.35;18.75;;;11.50;99.90;;;;;;5044191;28;20079;-75
2021/05/06 14:47:47;;;;;;;19.90;18.30;;;11.60;99.90;;;;;;5064386;28;20493;-76
2021/05/06 14:50:16;;;;;;;19.67;17.98;;;11.50;99.90;;;;;;5044821;28;20075;-74
2021/05/06 14:52:42;;;;;;;20.52;18.73;;;11.70;99.90;;;;;;5037579;28;20482;-75
2021/05/06 14:55:10;;;;;;;18.00;16.50;;;12.00;99.90;;;;;;5062641;28;20057;-74
2021/05/06 14:57:38;;;;;;;16.80;15.60;;;12.40;99.90;;;;;;5026510;28;20095;-75
2021/05/06 15:00:06;;;;;;;16.35;15.25;;;12.20;99.90;;;;;;5043382;28;20236;-75
2021/05/06 15:02:33;;;;;;;16.77;15.60;;;12.20;99.90;;;;;;5028757;28;20048;-75
2021/05/06 15:04:59;;;;;;;17.08;15.98;;;12.10;99.90;;;;;;5028751;28;20036;-75
2021/05/06 15:07:26;;;;;;;16.80;15.70;;;12.00;99.90;;;;;;5044347;28;20048;-75
2021/05/06 15:09:52;;;;;;;17.67;16.48;;;11.90;99.90;;;;;;5044785;28;20051;-74
2021/05/06 15:12:18;;;;;;;17.00;15.88;;;11.70;99.90;;;;;;5028723;28;20136;-74
2021/05/06 15:14:45;;;;;;;17.25;16.02;;;11.50;99.90;;;;;;5045105;28;20499;-75
2021/05/06 15:17:11;;;;;;;16.85;15.60;;;11.60;99.90;;;;;;5027436;28;20068;-75
2021/05/06 15:19:38;;;;;;;31.83;25.73;;;11.80;99.90;;;;;;5063879;28;20059;-76
2021/05/06 15:22:04;;;;;;;25.30;22.67;;;11.90;99.90;;;;;;5028512;28;20151;-75
2021/05/06 15:24:44;;;;;;;22.77;20.48;;;11.90;99.90;;;;;;5044316;28;20528;-75
2021/05/06 15:27:11;;;;;;;19.30;17.70;;;11.80;99.90;;;;;;5045369;28;20040;-76
2021/05/06 15:29:37;;;;;;;18.13;16.92;;;11.90;99.90;;;;;;5011790;28;20568;-75
2021/05/06 15:32:03;;;;;;;19.10;17.90;;;11.90;99.90;;;;;;5064407;28;20075;-75
2021/05/06 15:34:30;;;;;;;19.30;17.70;;;11.90;99.90;;;;;;5013867;28;20137;-75
2021/05/06 15:37:06;;;;;;;20.65;18.95;;;11.80;99.90;;;;;;5035678;28;20183;-75
2021/05/06 15:39:34;;;;;;;19.35;17.83;;;11.80;99.90;;;;;;5029740;28;20072;-74
2021/05/06 15:42:01;;;;;;;19.80;18.40;;;11.80;99.90;;;;;;5045818;28;20048;-75
2021/05/06 15:44:28;;;;;;;20.38;18.88;;;11.80;99.90;;;;;;5045811;28;20099;-75
2021/05/06 15:46:58;;;;;;;20.33;18.75;;;11.80;99.90;;;;;;5027473;28;20043;-75
2021/05/06 15:49:39;;;;;;;20.77;19.33;;;11.80;99.90;;;;;;5029511;28;20102;-75
2021/05/06 15:52:11;;;;;;;20.10;18.60;;;11.70;99.90;;;;;;5045520;28;20053;-75
2021/05/06 15:54:39;;;;;;;19.35;17.85;;;11.60;99.90;;;;;;5029933;28;20501;-75
2021/05/06 15:57:07;;;;;;;19.00;17.63;;;11.50;99.90;;;;;;5044990;28;20466;-75
2021/05/06 15:59:36;;;;;;;18.90;17.60;;;11.50;99.90;;;;;;5030436;28;20068;-75
2021/05/06 16:02:24;;;;;;;19.75;18.42;;;11.30;99.90;;;;;;5031834;28;20131;-75
2021/05/06 16:04:50;;;;;;;19.88;18.58;;;11.20;99.90;;;;;;5016478;28;20140;-75
2021/05/06 16:07:17;;;;;;;20.13;18.75;;;11.20;99.90;;;;;;5060455;28;20213;-75
2021/05/06 16:09:44;;;;;;;20.52;19.02;;;11.30;99.90;;;;;;5045406;28;20056;-75